createdAt,value
2018-08-19T00:01:08.341Z,100637.56
2018-08-19T00:03:39.353Z,100638.67
2018-08-19T00:06:10.346Z,100636.48
2018-08-19T00:08:41.346Z,100635.36
2018-08-19T00:11:12.359Z,100638.57
2018-08-19T00:13:43.373Z,100633.27
2018-08-19T00:16:14.385Z,100629.12
2018-08-19T00:18:45.405Z,100627.14
2018-08-19T00:21:16.417Z,100632.03
2018-08-19T00:23:49.525Z,100638.13
2018-08-19T00:26:20.452Z,100634.64
2018-08-19T00:28:51.453Z,100643.86
2018-08-19T00:31:22.437Z,100640.22
2018-08-19T00:33:54.405Z,100644.54
2018-08-19T00:36:35.369Z,100640.03
2018-08-19T00:39:09.553Z,100651.78
2018-08-19T00:41:40.526Z,100643.11
2018-08-19T00:44:11.482Z,100644.97
2018-08-19T00:46:42.440Z,100636.34
2018-08-19T00:49:14.985Z,100642.04
2018-08-19T00:51:51.290Z,100642.05
2018-08-19T00:54:21.404Z,100642.63
2018-08-19T00:56:56.381Z,100642.98
2018-08-19T00:59:29.296Z,100642.10
2018-08-19T01:02:00.510Z,100636.92
2018-08-19T01:04:31.575Z,100643.16
2018-08-19T01:07:03.550Z,100648.55
2018-08-19T01:09:34.476Z,100645.06
2018-08-19T01:12:05.553Z,100647.47
2018-08-19T01:14:37.557Z,100644.92
2018-08-19T01:17:08.552Z,100645.94
2018-08-19T01:19:39.509Z,100647.95
2018-08-19T01:22:10.512Z,100650.27
2018-08-19T01:24:41.515Z,100649.98
2018-08-19T01:27:12.505Z,100645.59
2018-08-19T01:29:45.513Z,100649.32
2018-08-19T01:32:16.431Z,100643.33
2018-08-19T01:34:47.501Z,100646.80
2018-08-19T01:37:18.481Z,100645.45
2018-08-19T01:39:49.386Z,100647.47
2018-08-19T01:42:20.394Z,100655.03
2018-08-19T01:44:51.423Z,100660.72
2018-08-19T01:47:22.379Z,100665.15
2018-08-19T01:49:53.458Z,100664.48
2018-08-19T01:52:24.444Z,100661.80
2018-08-19T01:54:55.478Z,100665.14
2018-08-19T01:57:34.164Z,100664.30
2018-08-19T02:00:05.640Z,100667.48
2018-08-19T02:02:57.438Z,100663.58
2018-08-19T02:05:28.530Z,100669.12
2018-08-19T02:08:01.765Z,100664.11
2018-08-19T02:10:34.751Z,100669.84
2018-08-19T02:13:05.558Z,100664.80
2018-08-19T02:15:36.529Z,100662.11
2018-08-19T02:18:07.500Z,100663.45
2018-08-19T02:20:41.418Z,100665.45
2018-08-19T02:23:13.433Z,100668.81
2018-08-19T02:25:47.432Z,100681.73
2018-08-19T02:28:23.020Z,100682.75
2018-08-19T02:30:59.327Z,100685.89
2018-08-19T02:33:36.394Z,100684.94
2018-08-19T02:36:09.388Z,100685.25
2018-08-19T02:38:40.486Z,100680.56
2018-08-19T02:41:11.530Z,100684.09
2018-08-19T02:43:48.310Z,100677.88
2018-08-19T02:46:19.373Z,100673.20
2018-08-19T02:48:53.287Z,100675.23
2018-08-19T02:51:23.400Z,100678.05
2018-08-19T02:53:54.461Z,100678.73
2018-08-19T02:56:25.473Z,100677.71
2018-08-19T02:58:56.493Z,100681.41
2018-08-19T03:01:27.510Z,100674.41
2018-08-19T03:03:58.522Z,100669.70
2018-08-19T03:06:29.488Z,100676.58
2018-08-19T03:09:01.021Z,100671.53
2018-08-19T03:11:32.378Z,100669.52
2018-08-19T03:14:03.493Z,100673.20
2018-08-19T03:16:36.523Z,100667.02
2018-08-19T03:19:07.476Z,100668.68
2018-08-19T03:21:38.494Z,100669.69
2018-08-19T03:24:09.494Z,100667.01
2018-08-19T03:26:40.501Z,100666.34
2018-08-19T03:29:15.400Z,100664.51
2018-08-19T03:31:49.696Z,100664.34
2018-08-19T03:34:20.492Z,100663.70
2018-08-19T03:36:51.485Z,100657.81
2018-08-19T03:52:23.178Z,100665.02
2018-08-19T03:54:54.366Z,100655.73
2018-08-19T03:57:25.397Z,100659.16
2018-08-19T03:59:56.468Z,100655.48
2018-08-19T04:02:27.430Z,100659.83
2018-08-19T04:04:58.472Z,100661.98
2018-08-19T04:07:29.457Z,100664.80
2018-08-19T04:10:00.406Z,100665.47
2018-08-19T04:12:31.471Z,100667.46
2018-08-19T04:15:02.457Z,100666.40
2018-08-19T04:17:33.483Z,100662.72
2018-08-19T04:20:04.562Z,100671.25
2018-08-19T04:22:35.461Z,100674.47
2018-08-19T04:25:06.524Z,100674.74
2018-08-19T04:27:37.437Z,100677.44
2018-08-19T04:30:08.475Z,100679.11
2018-08-19T04:35:18.428Z,100677.77
2018-08-19T04:37:49.483Z,100681.36
2018-08-19T04:40:20.477Z,100676.91
2018-08-19T04:42:51.509Z,100675.97
2018-08-19T04:45:22.458Z,100674.34
2018-08-19T04:47:53.447Z,100678.92
2018-08-19T04:50:24.500Z,100682.72
2018-08-19T04:52:55.478Z,100686.50
2018-08-19T04:55:26.494Z,100681.89
2018-08-19T04:57:57.474Z,100686.70
2018-08-19T05:00:28.451Z,100687.54
2018-08-19T05:02:59.554Z,100685.66
2018-08-19T05:05:30.494Z,100690.61
2018-08-19T05:08:01.552Z,100682.43
2018-08-19T05:10:32.428Z,100689.20
2018-08-19T05:13:03.471Z,100688.58
2018-08-19T05:15:34.531Z,100687.45
2018-08-19T05:18:05.510Z,100694.41
2018-08-19T05:20:36.441Z,100692.59
2018-08-19T05:23:08.351Z,100696.33
2018-08-19T05:26:02.269Z,100692.64
2018-08-19T05:28:32.477Z,100695.14
2018-08-19T05:31:03.457Z,100695.63
2018-08-19T05:33:34.472Z,100699.90
2018-08-19T05:36:05.498Z,100696.23
2018-08-19T05:38:36.469Z,100701.92
2018-08-19T05:43:52.485Z,100703.81
2018-08-19T05:46:23.480Z,100708.01
2018-08-19T05:48:58.568Z,100703.26
2018-08-19T05:51:29.472Z,100699.27
2018-08-19T05:54:00.515Z,100702.79
2018-08-19T05:56:31.473Z,100700.52
2018-08-19T05:59:02.484Z,100702.02
2018-08-19T06:01:33.429Z,100698.86
2018-08-19T06:04:04.517Z,100702.53
2018-08-19T06:06:35.450Z,100706.47
2018-08-19T06:09:07.493Z,100698.30
2018-08-19T06:11:38.456Z,100702.94
2018-08-19T06:14:10.518Z,100700.23
2018-08-19T06:16:41.486Z,100695.28
2018-08-19T06:19:12.470Z,100695.64
2018-08-19T06:21:43.510Z,100695.55
2018-08-19T06:24:14.706Z,100697.45
2018-08-19T06:26:46.623Z,100695.98
2018-08-19T06:29:17.738Z,100698.31
2018-08-19T06:31:49.426Z,100704.98
2018-08-19T06:34:20.491Z,100702.67
2018-08-19T06:36:51.479Z,100704.02
2018-08-19T06:39:22.464Z,100700.34
2018-08-19T06:41:53.465Z,100693.44
2018-08-19T06:44:24.710Z,100698.84
2018-08-19T06:46:55.593Z,100696.97
2018-08-19T06:49:27.238Z,100688.86
2018-08-19T06:51:58.381Z,100687.92
2018-08-19T06:54:29.587Z,100697.07
2018-08-19T06:57:00.668Z,100697.54
2018-08-19T06:59:31.557Z,100698.04
2018-08-19T07:02:02.545Z,100697.70
2018-08-19T07:04:33.525Z,100693.67
2018-08-19T07:07:04.658Z,100697.13
2018-08-19T07:09:35.645Z,100691.06
2018-08-19T07:12:14.483Z,100693.91
2018-08-19T07:14:46.434Z,100700.30
2018-08-19T07:17:18.394Z,100696.92
2018-08-19T07:19:49.381Z,100699.58
2018-08-19T07:22:22.405Z,100695.55
2018-08-19T07:24:53.485Z,100689.70
2018-08-19T07:27:24.484Z,100694.02
2018-08-19T07:29:56.412Z,100689.64
2018-08-19T07:32:27.482Z,100690.09
2018-08-19T07:34:58.505Z,100694.22
2018-08-19T07:37:29.477Z,100702.33
2018-08-19T07:40:00.453Z,100693.48
2018-08-19T07:42:31.786Z,100694.06
2018-08-19T07:45:02.594Z,100693.77
2018-08-19T07:47:33.529Z,100693.35
2018-08-19T07:50:04.548Z,100689.98
2018-08-19T07:52:35.510Z,100686.16
2018-08-19T07:55:07.660Z,100688.97
2018-08-19T07:57:42.548Z,100685.86
2018-08-19T08:00:14.441Z,100684.17
2018-08-19T08:02:45.566Z,100689.81
2018-08-19T08:05:16.563Z,100686.81
2018-08-19T08:07:49.465Z,100683.56
2018-08-19T08:10:20.555Z,100685.11
2018-08-19T08:12:57.665Z,100691.78
2018-08-19T08:15:28.618Z,100687.98
2018-08-19T08:17:59.561Z,100682.34
2018-08-19T08:20:30.530Z,100688.50
2018-08-19T08:23:18.184Z,100679.22
2018-08-19T08:25:49.544Z,100686.16
2018-08-19T08:28:20.688Z,100686.23
2018-08-19T08:30:51.641Z,100675.01
2018-08-19T08:33:22.611Z,100682.91
2018-08-19T08:35:57.491Z,100680.94
2018-08-19T08:38:28.563Z,100680.00
2018-08-19T08:40:59.572Z,100672.87
2018-08-19T08:43:30.559Z,100680.36
2018-08-19T08:46:01.531Z,100692.13
2018-08-19T08:48:34.550Z,100676.63
2018-08-19T08:51:05.636Z,100670.97
2018-08-19T08:53:40.450Z,100681.28
2018-08-19T08:56:11.515Z,100679.90
2018-08-19T08:58:42.493Z,100672.84
2018-08-19T09:01:13.472Z,100669.05
2018-08-19T09:03:44.474Z,100668.94
2018-08-19T09:06:21.205Z,100666.80
2018-08-19T09:08:52.399Z,100671.61
2018-08-19T09:11:23.485Z,100662.29
2018-08-19T09:13:55.278Z,100664.63
2018-08-19T09:16:25.445Z,100658.57
2018-08-19T09:18:56.508Z,100653.64
2018-08-19T09:21:27.598Z,100651.38
2018-08-19T09:23:58.500Z,100643.33
2018-08-19T09:26:29.530Z,100644.14
2018-08-19T09:29:00.559Z,100638.16
2018-08-19T09:31:31.480Z,100641.66
2018-08-19T09:34:02.465Z,100640.05
2018-08-19T09:36:33.486Z,100639.22
2018-08-19T09:39:06.445Z,100638.00
2018-08-19T09:41:37.504Z,100628.99
2018-08-19T09:44:08.521Z,100631.34
2018-08-19T09:46:44.724Z,100632.59
2018-08-19T09:49:15.718Z,100624.09
2018-08-19T09:51:46.603Z,100616.84
2018-08-19T09:54:21.374Z,100616.09
2018-08-19T09:56:52.479Z,100614.52
2018-08-19T09:59:23.506Z,100615.24
2018-08-19T10:01:54.576Z,100612.59
2018-08-19T10:04:26.426Z,100617.05
2018-08-19T10:07:02.724Z,100600.55
2018-08-19T10:09:33.587Z,100603.60
2018-08-19T10:12:04.555Z,100603.30
2018-08-19T10:14:35.559Z,100602.12
2018-08-19T10:17:08.013Z,100593.97
2018-08-19T10:19:39.354Z,100585.83
2018-08-19T10:22:10.391Z,100590.98
2018-08-19T10:24:41.473Z,100584.67
2018-08-19T10:27:12.494Z,100580.94
2018-08-19T10:29:43.474Z,100577.30
2018-08-19T10:32:14.509Z,100573.78
2018-08-19T10:34:46.581Z,100569.53
2018-08-19T10:37:17.578Z,100573.06
2018-08-19T10:39:48.496Z,100568.47
2018-08-19T10:42:24.521Z,100569.69
2018-08-19T10:44:55.491Z,100565.42
2018-08-19T10:47:26.501Z,100562.63
2018-08-19T10:50:02.649Z,100562.39
2018-08-19T10:52:33.769Z,100565.66
2018-08-19T10:55:04.601Z,100566.37
2018-08-19T10:57:35.481Z,100561.86
2018-08-19T11:00:16.405Z,100553.77
2018-08-19T11:02:47.482Z,100547.50
2018-08-19T11:05:18.525Z,100545.91
2018-08-19T11:07:49.536Z,100539.47
2018-08-19T11:10:24.308Z,100544.47
2018-08-19T11:12:57.446Z,100543.00
2018-08-19T11:15:46.398Z,100536.70
2018-08-19T11:18:50.454Z,100543.16
2018-08-19T11:21:30.393Z,100538.48
2018-08-19T11:24:01.552Z,100535.13
2018-08-19T11:26:32.515Z,100531.50
2018-08-19T11:29:05.573Z,100523.50
2018-08-19T11:31:39.266Z,100523.66
2018-08-19T11:34:09.944Z,100514.72
2018-08-19T11:36:43.838Z,100515.84
2018-08-19T11:39:16.489Z,100514.51
2018-08-19T11:41:47.473Z,100506.27
2018-08-19T11:44:19.027Z,100510.69
2018-08-19T11:46:50.310Z,100511.41
2018-08-19T11:49:21.646Z,100502.94
2018-08-19T11:51:59.401Z,100502.14
2018-08-19T11:54:31.464Z,100507.75
2018-08-19T11:57:06.402Z,100496.67
2018-08-19T11:59:42.816Z,100504.18
2018-08-19T12:02:25.447Z,100494.84
2018-08-19T12:04:56.506Z,100491.05
2018-08-19T12:07:27.533Z,100492.05
2018-08-19T12:10:01.346Z,100491.30
2018-08-19T12:12:48.188Z,100496.09
2018-08-19T12:15:19.436Z,100490.29
2018-08-19T12:17:50.682Z,100477.66
2018-08-19T12:20:26.645Z,100472.55
2018-08-19T12:22:57.519Z,100475.31
2018-08-19T12:25:28.507Z,100470.14
2018-08-19T12:28:00.304Z,100467.95
2018-08-19T12:30:34.786Z,100465.00
2018-08-19T12:33:24.588Z,100459.70
2018-08-19T12:35:57.341Z,100456.92
2018-08-19T12:38:28.729Z,100455.34
2018-08-19T12:41:00.302Z,100447.92
2018-08-19T12:43:31.422Z,100438.05
2018-08-19T12:46:03.394Z,100437.20
2018-08-19T12:48:34.498Z,100436.11
2018-08-19T12:51:06.441Z,100426.13
2018-08-19T12:53:39.606Z,100424.20
2018-08-19T12:56:10.479Z,100421.73
2018-08-19T12:58:41.495Z,100428.66
2018-08-19T13:01:12.501Z,100430.36
2018-08-19T13:03:43.493Z,100413.32
2018-08-19T13:06:14.506Z,100420.13
2018-08-19T13:08:45.505Z,100421.27
2018-08-19T13:11:16.537Z,100417.14
2018-08-19T13:13:47.501Z,100411.94
2018-08-19T13:16:18.485Z,100403.17
2018-08-19T13:18:49.531Z,100401.75
2018-08-19T13:21:20.498Z,100403.40
2018-08-19T13:23:51.465Z,100403.59
2018-08-19T13:26:22.491Z,100390.97
2018-08-19T13:28:55.661Z,100390.98
2018-08-19T13:31:31.356Z,100382.17
2018-08-19T13:34:03.030Z,100386.92
2018-08-19T13:36:34.374Z,100375.45
2018-08-19T13:39:07.621Z,100376.93
2018-08-19T13:41:38.484Z,100368.42
2018-08-19T13:44:09.464Z,100368.64
2018-08-19T13:46:40.515Z,100368.39
2018-08-19T13:49:11.481Z,100366.69
2018-08-19T13:51:42.460Z,100355.86
2018-08-19T13:54:13.522Z,100353.37
2018-08-19T13:56:45.341Z,100355.95
2018-08-19T13:59:17.032Z,100348.09
2018-08-19T14:01:48.271Z,100347.20
2018-08-19T14:04:18.403Z,100346.37
2018-08-19T14:06:49.428Z,100339.92
2018-08-19T14:09:21.502Z,100339.43
2018-08-19T14:11:52.489Z,100335.25
2018-08-19T14:14:23.480Z,100334.83
2018-08-19T14:16:54.480Z,100339.27
2018-08-19T14:19:25.439Z,100328.39
2018-08-19T14:21:56.506Z,100331.87
2018-08-19T14:24:27.436Z,100319.92
2018-08-19T14:26:58.457Z,100313.62
2018-08-19T14:29:30.245Z,100322.80
2018-08-19T14:32:00.419Z,100321.03
2018-08-19T14:34:31.454Z,100325.98
2018-08-19T14:37:02.606Z,100313.79
2018-08-19T14:39:33.492Z,100314.01
2018-08-19T14:42:04.461Z,100301.18
2018-08-19T14:47:15.538Z,100299.51
2018-08-19T14:49:46.434Z,100299.18
2018-08-19T14:52:17.488Z,100303.55
2018-08-19T14:54:48.469Z,100291.59
2018-08-19T14:57:19.521Z,100282.97
2018-08-19T14:59:50.529Z,100286.19
2018-08-19T15:02:21.537Z,100290.31
2018-08-19T15:04:52.497Z,100284.47
2018-08-19T15:07:23.481Z,100281.44
2018-08-19T15:09:55.586Z,100288.17
2018-08-19T15:12:27.449Z,100278.34
2018-08-19T15:15:00.798Z,100295.93
2018-08-19T15:17:31.556Z,100281.36
2018-08-19T15:22:36.397Z,100279.47
2018-08-19T15:25:07.485Z,100276.70
2018-08-19T15:27:42.306Z,100273.70
2018-08-19T15:30:17.242Z,100277.00
2018-08-19T15:32:47.680Z,100276.06
2018-08-19T15:35:18.497Z,100279.70
2018-08-19T15:37:49.509Z,100282.42
2018-08-19T15:40:37.425Z,100276.78
2018-08-19T15:43:09.389Z,100271.52
2018-08-19T15:45:40.687Z,100270.48
2018-08-19T15:48:11.534Z,100269.52
2018-08-19T15:50:42.477Z,100260.34
2018-08-19T15:53:13.497Z,100265.95
2018-08-19T15:55:44.446Z,100264.05
2018-08-19T15:58:15.459Z,100263.76
2018-08-19T16:00:46.408Z,100260.53
2018-08-19T16:03:17.413Z,100258.72
2018-08-19T16:05:48.433Z,100263.20
2018-08-19T16:08:19.445Z,100256.88
2018-08-19T16:10:50.393Z,100252.72
2018-08-19T16:13:21.425Z,100252.63
2018-08-19T16:15:52.457Z,100251.50
2018-08-19T16:18:23.497Z,100247.80
2018-08-19T16:20:58.352Z,100255.50
2018-08-19T16:23:29.365Z,100250.97
2018-08-19T16:26:00.530Z,100244.75
2018-08-19T16:29:15.571Z,100240.73
2018-08-19T16:31:46.648Z,100238.34
2018-08-19T16:34:17.521Z,100237.05
2018-08-19T16:36:48.528Z,100237.17
2018-08-19T16:39:19.781Z,100226.73
2018-08-19T16:41:50.555Z,100230.74
2018-08-19T16:44:21.505Z,100231.22
2018-08-19T16:46:52.501Z,100222.73
2018-08-19T16:49:23.432Z,100222.42
2018-08-19T16:51:54.498Z,100221.36
2018-08-19T16:54:25.529Z,100225.19
2018-08-19T16:56:56.540Z,100218.06
2018-08-19T16:59:27.514Z,100221.84
2018-08-19T17:01:58.494Z,100217.52
2018-08-19T17:04:29.429Z,100221.09
2018-08-19T17:07:00.418Z,100216.30
2018-08-19T17:09:31.491Z,100213.91
2018-08-19T17:12:03.736Z,100219.25
2018-08-19T17:14:34.649Z,100215.33
2018-08-19T17:17:05.510Z,100211.40
2018-08-19T17:19:36.481Z,100209.52
2018-08-19T17:22:09.829Z,100212.30
2018-08-19T17:24:40.585Z,100210.53
2018-08-19T17:27:13.207Z,100208.47
2018-08-19T17:29:44.293Z,100211.69
2018-08-19T17:32:15.349Z,100216.08
2018-08-19T17:34:46.404Z,100214.34
2018-08-19T17:37:17.450Z,100214.03
2018-08-19T17:39:48.538Z,100214.28
2018-08-19T17:42:19.457Z,100214.58
2018-08-19T17:44:50.419Z,100212.48
2018-08-19T17:47:21.462Z,100216.31
2018-08-19T17:49:52.452Z,100213.69
2018-08-19T17:52:23.461Z,100214.16
2018-08-19T17:54:54.518Z,100220.42
2018-08-19T17:57:25.568Z,100212.15
2018-08-19T17:59:56.553Z,100216.11
2018-08-19T18:02:27.496Z,100216.09
2018-08-19T18:07:38.497Z,100216.30
2018-08-19T18:10:14.410Z,100217.53
2018-08-19T18:12:46.406Z,100216.42
2018-08-19T18:15:17.506Z,100223.29
2018-08-19T18:17:57.324Z,100226.77
2018-08-19T18:20:34.661Z,100224.98
2018-08-19T18:23:12.525Z,100224.98
2018-08-19T18:25:47.022Z,100226.27
2018-08-19T18:28:24.393Z,100224.13
2018-08-19T18:31:14.586Z,100227.98
2018-08-19T18:34:07.441Z,100225.70
2018-08-19T18:36:38.485Z,100225.75
2018-08-19T18:39:11.845Z,100222.45
2018-08-19T18:41:47.293Z,100233.70
2018-08-19T18:46:58.273Z,100245.16
2018-08-19T18:49:29.366Z,100240.64
2018-08-19T18:52:06.825Z,100240.20
2018-08-19T18:57:22.472Z,100246.49
2018-08-19T18:59:53.669Z,100256.00
2018-08-19T19:02:24.518Z,100245.55
2018-08-19T19:04:55.493Z,100253.28
2018-08-19T19:07:26.515Z,100255.33
2018-08-19T19:09:57.506Z,100254.44
2018-08-19T19:12:28.542Z,100254.99
2018-08-19T19:14:59.565Z,100251.67
2018-08-19T19:17:30.533Z,100251.73
2018-08-19T19:20:01.537Z,100256.49
2018-08-19T19:22:32.524Z,100263.93
2018-08-19T19:25:03.517Z,100255.34
2018-08-19T19:27:34.513Z,100257.66
2018-08-19T19:30:06.021Z,100261.25
2018-08-19T19:32:37.424Z,100263.56
2018-08-19T19:35:18.565Z,100266.66
2018-08-19T19:37:50.404Z,100267.42
2018-08-19T19:40:23.434Z,100273.40
2018-08-19T19:42:54.524Z,100267.30
2018-08-19T19:45:25.685Z,100275.74
2018-08-19T19:50:42.019Z,100274.35
2018-08-19T19:53:13.389Z,100269.52
2018-08-19T19:55:44.550Z,100271.67
2018-08-19T19:58:15.529Z,100278.84
2018-08-19T20:00:56.361Z,100268.98
2018-08-19T20:03:27.362Z,100273.05
2018-08-19T20:05:58.414Z,100273.75
2018-08-19T20:08:29.514Z,100279.45
2018-08-19T20:11:00.470Z,100283.53
2018-08-19T20:13:31.493Z,100285.78
2018-08-19T20:16:02.486Z,100292.13
2018-08-19T20:18:34.016Z,100291.14
2018-08-19T20:21:10.844Z,100288.80
2018-08-19T20:23:41.690Z,100293.23
2018-08-19T20:26:12.577Z,100293.15
2018-08-19T20:28:43.582Z,100291.94
2018-08-19T20:31:15.218Z,100296.05
2018-08-19T20:33:46.367Z,100297.02
2018-08-19T20:36:17.508Z,100295.89
2018-08-19T20:38:48.627Z,100299.20
2018-08-19T20:41:20.834Z,100300.78
2018-08-19T20:43:52.516Z,100298.59
2018-08-19T20:46:23.638Z,100301.06
2018-08-19T20:48:54.505Z,100303.98
2018-08-19T20:51:25.610Z,100302.98
2018-08-19T20:53:56.660Z,100308.41
2018-08-19T20:56:27.599Z,100302.25
2018-08-19T20:58:58.509Z,100305.83
2018-08-19T21:01:29.678Z,100305.96
2018-08-19T21:04:00.563Z,100305.91
2018-08-19T21:06:31.503Z,100305.91
2018-08-19T21:09:02.523Z,100309.64
2018-08-19T21:11:33.497Z,100317.60
2018-08-19T21:14:04.534Z,100313.54
2018-08-19T21:16:35.495Z,100316.09
2018-08-19T21:19:06.535Z,100316.70
2018-08-19T21:21:37.465Z,100318.59
2018-08-19T21:24:08.522Z,100320.50
2018-08-19T21:26:41.604Z,100317.41
2018-08-19T21:29:12.508Z,100324.02
2018-08-19T21:31:43.522Z,100318.98
2018-08-19T21:34:14.504Z,100320.33
2018-08-19T21:36:45.467Z,100330.41
2018-08-19T21:39:16.465Z,100327.61
2018-08-19T21:41:54.426Z,100328.63
2018-08-19T21:44:25.523Z,100324.74
2018-08-19T21:46:56.541Z,100323.45
2018-08-19T21:49:27.530Z,100341.05
2018-08-19T21:51:58.524Z,100334.95
2018-08-19T21:54:29.514Z,100335.02
2018-08-19T21:57:00.514Z,100334.17
2018-08-19T21:59:31.510Z,100335.17
2018-08-19T22:02:02.495Z,100335.97
2018-08-19T22:04:33.535Z,100343.75
2018-08-19T22:07:04.512Z,100339.28
2018-08-19T22:09:39.426Z,100343.95
2018-08-19T22:12:10.505Z,100348.64
2018-08-19T22:14:41.521Z,100345.20
2018-08-19T22:17:12.557Z,100351.89
2018-08-19T22:19:43.560Z,100343.13
2018-08-19T22:22:14.505Z,100346.59
2018-08-19T22:24:45.496Z,100345.14
2018-08-19T22:27:18.215Z,100342.33
2018-08-19T22:29:50.380Z,100343.60
2018-08-19T22:32:21.475Z,100339.95
2018-08-19T22:34:52.477Z,100348.28
2018-08-19T22:37:23.528Z,100345.71
2018-08-19T22:39:54.580Z,100347.66
2018-08-19T22:42:25.513Z,100344.46
2018-08-19T22:44:56.494Z,100344.89
2018-08-19T22:47:27.466Z,100351.14
2018-08-19T22:50:01.012Z,100349.78
2018-08-19T22:52:32.305Z,100345.11
2018-08-19T22:55:03.376Z,100346.89
2018-08-19T22:57:34.468Z,100349.39
2018-08-19T23:00:08.291Z,100351.88
2018-08-19T23:02:39.332Z,100345.20
2018-08-19T23:05:10.361Z,100341.39
2018-08-19T23:07:41.374Z,100350.33
2018-08-19T23:10:12.505Z,100342.42
2018-08-19T23:12:43.554Z,100344.39
2018-08-19T23:15:37.459Z,100343.88
2018-08-19T23:18:08.744Z,100343.34
2018-08-19T23:20:39.575Z,100343.05
2018-08-19T23:23:10.490Z,100348.83
2018-08-19T23:25:41.441Z,100349.74
2018-08-19T23:28:12.412Z,100355.37
2018-08-19T23:30:43.465Z,100357.74
2018-08-19T23:33:14.453Z,100352.75
2018-08-19T23:35:45.469Z,100357.68
2018-08-19T23:38:16.800Z,100351.52
2018-08-19T23:40:47.661Z,100353.96
2018-08-19T23:43:18.693Z,100351.14
2018-08-19T23:45:49.557Z,100352.19
2018-08-19T23:48:20.479Z,100350.80
2018-08-19T23:50:51.424Z,100352.91
2018-08-19T23:53:22.386Z,100358.64
2018-08-19T23:55:53.481Z,100359.28
2018-08-19T23:58:24.436Z,100360.38
